Time;durP1;ratioP1;P1;durP2;ratioP2;P2;SDS_P1;SDS_P2;PMS_P1;PMS_P2;Temp;Humidity;BMP_temperature;BMP_pressure;BME280_temperature;BME280_humidity;BME280_pressure;Samples;Min_cycle;Max_cycle;Signal;HPM_P1;HPM_P2
2021/11/29 00:02:14;;;;;;;3.40;2.00;;;;;;;-148.56;100.00;61375.16;5024455;28;20392;-27
2021/11/29 00:05:38;;;;;;;5.35;2.05;;;;;;;-148.56;100.00;61375.16;5027389;28;20037;-29
2021/11/29 00:09:02;;;;;;;6.93;1.70;;;;;;;-148.56;100.00;61375.16;5023351;28;20382;-30
2021/11/29 00:12:26;;;;;;;3.22;1.70;;;;;;;-148.56;100.00;61375.16;5039478;28;20108;-27
2021/11/29 00:15:50;;;;;;;3.97;1.88;;;;;;;-148.56;100.00;61375.16;5031810;28;20025;-29
2021/11/29 00:19:14;;;;;;;4.32;2.22;;;;;;;-148.56;100.00;61375.16;5024260;28;20460;-32
2021/11/29 00:22:38;;;;;;;3.75;1.70;;;;;;;-148.56;100.00;61375.16;5025942;28;20040;-31
2021/11/29 00:26:02;;;;;;;3.05;1.67;;;;;;;-148.56;100.00;61375.16;5028150;28;20033;-29
2021/11/29 00:29:26;;;;;;;3.70;1.80;;;;;;;-148.56;100.00;61375.16;5036011;28;20116;-34
2021/11/29 00:32:50;;;;;;;3.42;1.35;;;;;;;-148.56;100.00;61375.16;5027334;28;20034;-28
2021/11/29 00:36:15;;;;;;;5.85;1.83;;;;;;;-148.56;100.00;61375.16;5023549;28;21468;-32
2021/11/29 00:39:39;;;;;;;3.03;1.73;;;;;;;-148.56;100.00;61375.16;5024686;28;20218;-27
2021/11/29 00:43:03;;;;;;;5.38;1.80;;;;;;;-148.56;100.00;61375.16;5019839;28;20725;-28
2021/11/29 00:46:27;;;;;;;2.47;1.52;;;;;;;-148.56;100.00;61375.16;5019325;28;20067;-28
2021/11/29 00:49:53;;;;;;;5.95;1.80;;;;;;;-148.56;100.00;61375.16;5021256;28;20355;-33
2021/11/29 00:53:17;;;;;;;2.25;1.70;;;;;;;-148.56;100.00;61375.16;5027869;28;20622;-32
2021/11/29 00:56:40;;;;;;;4.43;1.70;;;;;;;-148.56;100.00;61375.16;5022343;28;20120;-30
2021/11/29 01:00:05;;;;;;;4.55;1.85;;;;;;;-148.56;100.00;61375.16;5023898;28;20063;-31
2021/11/29 01:03:29;;;;;;;3.17;1.75;;;;;;;-148.56;100.00;61375.16;5025209;28;20504;-32
2021/11/29 01:06:53;;;;;;;2.25;1.30;;;;;;;-148.56;100.00;61375.16;5026347;28;20887;-30
2021/11/29 01:10:17;;;;;;;2.22;1.35;;;;;;;-148.56;100.00;61375.16;5023837;28;20035;-31
2021/11/29 01:13:41;;;;;;;3.22;1.52;;;;;;;-148.56;100.00;61375.16;5022791;28;20032;-27
2021/11/29 01:17:05;;;;;;;2.78;1.63;;;;;;;-148.56;100.00;61375.16;5040020;28;20033;-28
2021/11/29 01:20:29;;;;;;;3.20;1.48;;;;;;;-148.56;100.00;61375.16;5030510;28;20033;-30
2021/11/29 01:23:53;;;;;;;2.40;1.52;;;;;;;-148.56;100.00;61375.16;5024159;28;20044;-28
2021/11/29 01:27:17;;;;;;;2.47;1.73;;;;;;;-148.56;100.00;61375.16;5022577;28;20661;-29
2021/11/29 01:30:41;;;;;;;1.75;1.35;;;;;;;-148.56;100.00;61375.16;5026689;28;20057;-31
2021/11/29 01:34:05;;;;;;;5.18;1.50;;;;;;;-148.56;100.00;61375.16;5026461;28;20417;-28
2021/11/29 01:37:31;;;;;;;2.83;1.70;;;;;;;-148.56;100.00;61375.16;5023180;28;20035;-28
2021/11/29 01:40:55;;;;;;;3.15;1.70;;;;;;;-148.56;100.00;61375.16;5026539;28;20033;-30
2021/11/29 01:44:19;;;;;;;4.07;1.98;;;;;;;-148.56;100.00;61375.16;5026395;28;20080;-31
2021/11/29 01:47:43;;;;;;;2.60;1.58;;;;;;;-148.56;100.00;61375.16;5022022;28;20139;-30
2021/11/29 01:51:07;;;;;;;2.15;1.58;;;;;;;-148.56;100.00;61375.16;5022422;28;20116;-30
2021/11/29 01:54:31;;;;;;;3.03;1.65;;;;;;;-148.56;100.00;61375.16;5020048;28;20028;-28
2021/11/29 01:57:55;;;;;;;4.28;1.42;;;;;;;-148.56;100.00;61375.16;5027245;28;20039;-32
2021/11/29 02:01:21;;;;;;;2.08;1.15;;;;;;;-148.56;100.00;61375.16;5024789;28;20855;-32
2021/11/29 02:04:46;;;;;;;3.47;1.80;;;;;;;-148.56;100.00;61375.16;5044116;28;20405;-30
2021/11/29 02:08:10;;;;;;;7.80;1.80;;;;;;;-148.56;100.00;61375.16;5026904;28;20063;-29
2021/11/29 02:11:34;;;;;;;5.45;1.92;;;;;;;-148.56;100.00;61375.16;5025800;28;20022;-30
2021/11/29 02:14:58;;;;;;;4.05;1.67;;;;;;;-148.56;100.00;61375.16;5032278;28;20442;-27
2021/11/29 02:18:26;;;;;;;1.85;1.30;;;;;;;-148.56;100.00;61375.16;5024434;28;20060;-29
2021/11/29 02:21:58;;;;;;;6.95;1.52;;;;;;;-148.56;100.00;61375.16;5024264;28;20031;-30
2021/11/29 02:25:21;;;;;;;5.50;1.80;;;;;;;-148.56;100.00;61375.16;5040595;28;20037;-31
2021/11/29 02:28:48;;;;;;;3.22;1.50;;;;;;;-148.56;100.00;61375.16;5026148;28;20033;-28
2021/11/29 02:32:13;;;;;;;3.33;1.52;;;;;;;-148.56;100.00;61375.16;5025010;28;20017;-30
2021/11/29 02:35:37;;;;;;;1.98;1.38;;;;;;;-148.56;100.00;61375.16;5021872;28;20031;-34
2021/11/29 02:39:01;;;;;;;6.50;1.50;;;;;;;-148.56;100.00;61375.16;5022860;28;20454;-27
2021/11/29 02:42:25;;;;;;;2.30;1.30;;;;;;;-148.56;100.00;61375.16;5024641;28;20064;-31
2021/11/29 02:45:49;;;;;;;4.47;1.80;;;;;;;-148.56;100.00;61375.16;5021220;28;20039;-29
2021/11/29 02:49:13;;;;;;;3.33;1.30;;;;;;;-148.56;100.00;61375.16;5021781;28;20040;-30
2021/11/29 02:52:47;;;;;;;2.83;1.00;;;;;;;-148.56;100.00;61375.16;5022931;28;20040;-29
2021/11/29 02:56:11;;;;;;;3.20;1.48;;;;;;;-148.56;100.00;61375.16;5023496;28;20048;-31
2021/11/29 02:59:38;;;;;;;3.88;1.42;;;;;;;-148.56;100.00;61375.16;5021510;28;20174;-29
2021/11/29 03:03:09;;;;;;;2.28;1.20;;;;;;;-148.56;100.00;61375.16;5021427;28;20053;-32
2021/11/29 03:06:33;;;;;;;2.00;1.20;;;;;;;-148.56;100.00;61375.16;5021773;28;20028;-31
2021/11/29 03:09:57;;;;;;;2.92;1.23;;;;;;;-148.56;100.00;61375.16;5023508;28;20071;-29
2021/11/29 03:13:21;;;;;;;2.25;1.23;;;;;;;-148.56;100.00;61375.16;5024139;28;20576;-28
2021/11/29 03:16:46;;;;;;;1.48;1.10;;;;;;;-148.56;100.00;61375.16;5020677;28;20116;-28
2021/11/29 03:20:10;;;;;;;1.40;1.00;;;;;;;-148.56;100.00;61375.16;5022696;28;21941;-31
2021/11/29 03:23:34;;;;;;;1.88;1.25;;;;;;;-148.56;100.00;61375.16;5020603;28;20102;-32
2021/11/29 03:26:58;;;;;;;2.00;1.45;;;;;;;-148.56;100.00;61375.16;5019773;28;20033;-32
2021/11/29 03:30:22;;;;;;;3.55;1.48;;;;;;;-148.56;100.00;61375.16;5025954;28;20056;-28
2021/11/29 03:33:46;;;;;;;1.55;1.10;;;;;;;-148.56;100.00;61375.16;5023934;28;20028;-30
2021/11/29 03:37:10;;;;;;;3.47;1.23;;;;;;;-148.56;100.00;61375.16;5021771;28;20021;-29
2021/11/29 03:40:35;;;;;;;4.50;1.50;;;;;;;-148.56;100.00;61375.16;5021738;28;20064;-30
2021/11/29 03:43:59;;;;;;;2.13;1.02;;;;;;;-148.56;100.00;61375.16;5021629;28;20862;-32
2021/11/29 03:47:22;;;;;;;2.85;1.20;;;;;;;-148.56;100.00;61375.16;5020902;28;20612;-28
2021/11/29 03:50:46;;;;;;;1.65;1.13;;;;;;;-148.56;100.00;61375.16;5021096;28;20044;-30
2021/11/29 03:54:10;;;;;;;1.48;1.20;;;;;;;-148.56;100.00;61375.16;5021189;28;20030;-26
2021/11/29 03:57:34;;;;;;;1.90;1.15;;;;;;;-148.56;100.00;61375.16;5025174;28;20032;-31
2021/11/29 04:00:58;;;;;;;2.30;1.08;;;;;;;-148.56;100.00;61375.16;5023224;28;20025;-32
2021/11/29 04:04:22;;;;;;;2.80;0.98;;;;;;;-148.56;100.00;61375.16;5026429;28;20803;-33
2021/11/29 04:07:47;;;;;;;3.70;1.10;;;;;;;-148.56;100.00;61375.16;5028104;28;20025;-30
2021/11/29 04:11:11;;;;;;;2.22;1.00;;;;;;;-148.56;100.00;61375.16;5027987;28;20036;-29
2021/11/29 04:14:35;;;;;;;1.15;0.80;;;;;;;-148.56;100.00;61375.16;5029729;28;20429;-29
2021/11/29 04:17:59;;;;;;;1.77;0.90;;;;;;;-148.56;100.00;61375.16;5030097;28;20033;-30
2021/11/29 04:21:23;;;;;;;2.42;1.30;;;;;;;-148.56;100.00;61375.16;5029245;28;20054;-30
2021/11/29 04:24:47;;;;;;;1.67;0.93;;;;;;;-148.56;100.00;61375.16;5043578;28;20494;-27
2021/11/29 04:28:11;;;;;;;1.15;0.80;;;;;;;-148.56;100.00;61375.16;5041655;28;20052;-29
2021/11/29 04:31:35;;;;;;;2.25;1.13;;;;;;;-148.56;100.00;61375.16;5027385;28;20028;-30
2021/11/29 04:34:59;;;;;;;2.67;1.38;;;;;;;-148.56;100.00;61375.16;5029365;28;20032;-31
2021/11/29 04:38:23;;;;;;;4.90;1.20;;;;;;;-148.56;100.00;61375.16;5028654;28;20048;-30
2021/11/29 04:41:46;;;;;;;2.97;1.10;;;;;;;-148.56;100.00;61375.16;5028013;28;20037;-32
2021/11/29 04:45:10;;;;;;;1.83;1.05;;;;;;;-148.56;100.00;61375.16;5029447;28;20044;-31
2021/11/29 04:48:34;;;;;;;2.85;1.20;;;;;;;-148.56;100.00;61375.16;5026980;28;20029;-30
2021/11/29 04:51:58;;;;;;;4.65;1.48;;;;;;;-148.56;100.00;61375.16;5030854;28;20219;-30
2021/11/29 04:55:22;;;;;;;3.10;1.27;;;;;;;-148.56;100.00;61375.16;5029238;28;20053;-31
2021/11/29 04:58:46;;;;;;;1.25;1.10;;;;;;;-148.56;100.00;61375.16;5028238;28;20029;-30
2021/11/29 05:02:11;;;;;;;2.58;1.42;;;;;;;-148.56;100.00;61375.16;5029918;28;20025;-32
2021/11/29 05:05:35;;;;;;;3.25;1.55;;;;;;;-148.56;100.00;61375.16;5030120;28;20036;-28
2021/11/29 05:08:59;;;;;;;1.65;1.13;;;;;;;-148.56;100.00;61375.16;5029589;28;20029;-30
2021/11/29 05:12:23;;;;;;;4.63;1.30;;;;;;;-148.56;100.00;61375.16;5028947;28;20063;-30
2021/11/29 05:15:47;;;;;;;1.70;1.23;;;;;;;-148.56;100.00;61375.16;5026185;28;20043;-30
2021/11/29 05:19:11;;;;;;;1.83;1.00;;;;;;;-148.56;100.00;61375.16;5028819;28;20755;-29
2021/11/29 05:22:35;;;;;;;2.45;1.25;;;;;;;-148.56;100.00;61375.16;5023158;28;20120;-29
2021/11/29 05:25:58;;;;;;;4.70;1.75;;;;;;;-148.56;100.00;61375.16;5023193;28;20631;-30
2021/11/29 05:29:22;;;;;;;1.77;1.20;;;;;;;-148.56;100.00;61375.16;5025077;28;20061;-31
2021/11/29 05:32:46;;;;;;;1.98;1.15;;;;;;;-148.56;100.00;61375.16;5028645;28;20042;-31
2021/11/29 05:36:10;;;;;;;3.17;1.33;;;;;;;-148.56;100.00;61375.16;5024628;28;20076;-30
2021/11/29 05:39:34;;;;;;;1.88;1.17;;;;;;;-148.56;100.00;61375.16;5028035;28;20032;-27
2021/11/29 05:42:58;;;;;;;2.42;1.02;;;;;;;-148.56;100.00;61375.16;5023351;28;20071;-30
2021/11/29 05:46:22;;;;;;;1.65;1.13;;;;;;;-148.56;100.00;61375.16;5028162;28;20029;-29
2021/11/29 05:49:46;;;;;;;1.40;1.00;;;;;;;-148.56;100.00;61375.16;5027958;28;20107;-30
2021/11/29 05:53:10;;;;;;;1.08;1.00;;;;;;;-148.56;100.00;61375.16;5026106;28;20028;-33
2021/11/29 05:56:34;;;;;;;1.90;1.10;;;;;;;-148.56;100.00;61375.16;5020846;28;20060;-29
2021/11/29 05:59:58;;;;;;;3.70;1.10;;;;;;;-148.56;100.00;61375.16;5034209;28;20652;-31
2021/11/29 06:03:22;;;;;;;1.73;1.27;;;;;;;-148.56;100.00;61375.16;5023703;28;20115;-30
2021/11/29 06:06:46;;;;;;;7.22;2.38;;;;;;;-148.56;100.00;61375.16;5028640;28;20108;-32
2021/11/29 06:10:10;;;;;;;2.65;1.63;;;;;;;-148.56;100.00;61375.16;5026986;28;20439;-27
2021/11/29 06:13:34;;;;;;;2.60;1.30;;;;;;;-148.56;100.00;61375.16;5042345;28;20017;-30
2021/11/29 06:16:58;;;;;;;4.10;1.23;;;;;;;-148.56;100.00;61375.16;5025725;28;20036;-34
2021/11/29 06:20:22;;;;;;;2.80;1.40;;;;;;;-148.56;100.00;61375.16;5023945;28;20112;-29
2021/11/29 06:23:47;;;;;;;2.10;1.17;;;;;;;-148.56;100.00;61375.16;5022022;28;20106;-30
2021/11/29 06:27:12;;;;;;;1.67;1.10;;;;;;;-148.56;100.00;61375.16;5025770;28;20025;-30
2021/11/29 06:30:36;;;;;;;4.10;1.30;;;;;;;-148.56;100.00;61375.16;5027198;28;20037;-28
2021/11/29 06:34:00;;;;;;;3.03;1.10;;;;;;;-148.56;100.00;61375.16;5024590;28;20037;-28
2021/11/29 06:37:27;;;;;;;1.73;1.30;;;;;;;-148.56;100.00;61375.16;5030302;28;20119;-30
2021/11/29 06:40:51;;;;;;;1.80;1.17;;;;;;;-148.56;100.00;61375.16;5020816;28;20055;-31
2021/11/29 06:44:16;;;;;;;3.15;1.00;;;;;;;-148.56;100.00;61375.16;5024691;28;20099;-30
2021/11/29 06:47:42;;;;;;;2.63;1.35;;;;;;;-148.56;100.00;61375.16;5028069;28;20029;-30
2021/11/29 06:51:06;;;;;;;4.10;1.58;;;;;;;-148.56;100.00;61375.16;5027836;28;20509;-31
2021/11/29 06:54:32;;;;;;;1.42;0.93;;;;;;;-148.56;100.00;61375.16;5027572;28;20135;-31
2021/11/29 06:57:56;;;;;;;2.60;1.17;;;;;;;-148.56;100.00;61375.16;5025423;28;20016;-31
2021/11/29 07:01:20;;;;;;;1.55;0.88;;;;;;;-148.56;100.00;61375.16;5026385;28;20056;-31
2021/11/29 07:04:44;;;;;;;1.58;1.10;;;;;;;-148.56;100.00;61375.16;5027285;28;20032;-28
2021/11/29 07:08:08;;;;;;;3.28;1.17;;;;;;;-148.56;100.00;61375.16;5025141;28;20025;-29
2021/11/29 07:11:33;;;;;;;1.63;1.10;;;;;;;-148.56;100.00;61375.16;5027040;28;20024;-30
2021/11/29 07:14:57;;;;;;;2.75;1.10;;;;;;;-148.56;100.00;61375.16;5027389;28;20577;-30
2021/11/29 07:18:21;;;;;;;1.13;0.95;;;;;;;-148.56;100.00;61375.16;5031319;28;20024;-27
2021/11/29 07:21:45;;;;;;;2.45;1.13;;;;;;;-148.56;100.00;61375.16;5029148;28;20030;-31
2021/11/29 07:25:09;;;;;;;1.98;1.00;;;;;;;-148.56;100.00;61375.16;5021964;28;20120;-30
2021/11/29 07:28:33;;;;;;;12.27;1.30;;;;;;;-148.56;100.00;61375.16;5024447;28;20037;-28
2021/11/29 07:31:57;;;;;;;3.30;1.23;;;;;;;-148.56;100.00;61375.16;5023586;28;20057;-32
2021/11/29 07:35:24;;;;;;;7.82;1.10;;;;;;;-148.56;100.00;61375.16;5025802;28;20029;-28
2021/11/29 07:38:48;;;;;;;9.32;1.50;;;;;;;-148.56;100.00;61375.16;5027045;28;20055;-29
2021/11/29 07:42:12;;;;;;;6.50;1.88;;;;;;;-148.56;100.00;61375.16;5018312;28;20773;-31
2021/11/29 07:45:36;;;;;;;5.88;1.90;;;;;;;-148.56;100.00;61375.16;5025929;28;20029;-30
2021/11/29 07:49:03;;;;;;;7.40;2.10;;;;;;;-148.56;100.00;61375.16;5024987;28;20425;-28
2021/11/29 07:52:27;;;;;;;4.85;2.63;;;;;;;-148.56;100.00;61375.16;5027738;28;20083;-29
2021/11/29 07:55:51;;;;;;;4.65;2.58;;;;;;;-148.56;100.00;61375.16;5024376;28;20534;-28
2021/11/29 07:59:15;;;;;;;7.55;2.47;;;;;;;-148.56;100.00;61375.16;5024660;28;20381;-29
2021/11/29 08:02:39;;;;;;;5.90;2.33;;;;;;;-148.56;100.00;61375.16;5025036;28;20115;-29
2021/11/29 08:06:03;;;;;;;4.13;2.17;;;;;;;-148.56;100.00;61375.16;5024823;28;20039;-29
2021/11/29 08:09:27;;;;;;;7.38;2.63;;;;;;;-148.56;100.00;61375.16;5014929;28;20106;-28
2021/11/29 08:12:51;;;;;;;5.45;2.35;;;;;;;-148.56;100.00;61375.16;5024285;28;20389;-39
2021/11/29 08:16:15;;;;;;;3.50;2.15;;;;;;;-148.56;100.00;61375.16;5021704;28;20058;-30
2021/11/29 08:19:39;;;;;;;5.95;1.98;;;;;;;-148.56;100.00;61375.16;5023493;28;20136;-29
2021/11/29 08:23:03;;;;;;;3.72;2.03;;;;;;;-148.56;100.00;61375.16;5025964;28;20079;-27
2021/11/29 08:26:27;;;;;;;6.32;2.10;;;;;;;-148.56;100.00;61375.16;5033990;28;20037;-33
2021/11/29 08:29:51;;;;;;;3.03;2.10;;;;;;;-148.56;100.00;61375.16;5024799;28;20102;-31
2021/11/29 08:33:15;;;;;;;2.65;1.30;;;;;;;-148.56;100.00;61375.16;5027651;28;20040;-32
2021/11/29 08:36:39;;;;;;;3.13;1.33;;;;;;;-148.56;100.00;61375.16;5023081;28;20454;-28
2021/11/29 08:40:04;;;;;;;2.83;1.15;;;;;;;-148.56;100.00;61375.16;5024375;28;20100;-31
2021/11/29 08:43:28;;;;;;;2.00;1.00;;;;;;;-148.56;100.00;61375.16;5025205;28;20091;-30
2021/11/29 08:46:51;;;;;;;2.97;1.40;;;;;;;-148.56;100.00;61375.16;5021256;28;20859;-31
2021/11/29 08:50:16;;;;;;;2.28;1.30;;;;;;;-148.56;100.00;61375.16;5023039;28;20752;-32
2021/11/29 08:53:40;;;;;;;1.50;1.00;;;;;;;-148.56;100.00;61375.16;5036108;28;20430;-28
2021/11/29 08:57:03;;;;;;;4.63;1.23;;;;;;;-148.56;100.00;61375.16;5022845;28;20033;-27
2021/11/29 09:00:27;;;;;;;0.80;0.80;;;;;;;-148.56;100.00;61375.16;5022853;28;20120;-27
2021/11/29 09:03:51;;;;;;;2.28;1.25;;;;;;;-148.56;100.00;61375.16;5023519;28;21948;-32
2021/11/29 09:07:15;;;;;;;1.80;1.33;;;;;;;-148.56;100.00;61375.16;5022307;28;20221;-29
2021/11/29 09:10:39;;;;;;;3.13;1.30;;;;;;;-148.56;100.00;61375.16;5022868;28;20559;-27
2021/11/29 09:14:03;;;;;;;2.03;1.20;;;;;;;-148.56;100.00;61375.16;5034449;28;20080;-28
2021/11/29 09:17:27;;;;;;;2.22;1.30;;;;;;;-148.56;100.00;61375.16;5023593;28;20029;-29
2021/11/29 09:20:51;;;;;;;1.77;1.15;;;;;;;-148.56;100.00;61375.16;5023757;28;20511;-28
2021/11/29 09:24:15;;;;;;;2.42;1.13;;;;;;;-148.56;100.00;61375.16;5022353;28;20447;-32
2021/11/29 09:27:39;;;;;;;2.05;1.30;;;;;;;-148.56;100.00;61375.16;5020449;28;20060;-28
2021/11/29 09:31:04;;;;;;;2.13;1.20;;;;;;;-148.56;100.00;61375.16;5021838;28;20036;-27
2021/11/29 09:34:28;;;;;;;6.90;2.72;;;;;;;-148.56;100.00;61375.16;5021596;28;20048;-32
2021/11/29 09:37:51;;;;;;;12.40;2.90;;;;;;;-148.56;100.00;61375.16;5030200;28;20021;-31
2021/11/29 09:41:19;;;;;;;9.98;2.58;;;;;;;-148.56;100.00;61375.16;5022356;28;20100;-28
2021/11/29 09:44:43;;;;;;;4.40;2.03;;;;;;;-148.56;100.00;61375.16;5020727;28;20041;-32
2021/11/29 09:48:08;;;;;;;3.75;1.65;;;;;;;-148.56;100.00;61375.16;5022327;28;20032;-31
2021/11/29 09:51:32;;;;;;;3.65;1.60;;;;;;;-148.56;100.00;61375.16;5025643;28;20033;-29
2021/11/29 09:54:56;;;;;;;3.63;1.50;;;;;;;-148.56;100.00;61375.16;5023019;28;20032;-30
2021/11/29 09:58:20;;;;;;;2.88;1.75;;;;;;;-148.56;100.00;61375.16;5019987;28;20113;-30
2021/11/29 10:01:45;;;;;;;3.03;1.55;;;;;;;-148.56;100.00;61375.16;5022600;28;20025;-31
2021/11/29 10:05:09;;;;;;;2.60;1.20;;;;;;;-148.56;100.00;61375.16;5021976;28;20029;-28
2021/11/29 10:08:40;;;;;;;4.25;1.50;;;;;;;-148.56;100.00;61375.16;5021108;28;20504;-29
2021/11/29 10:12:08;;;;;;;6.40;1.27;;;;;;;-148.56;100.00;61375.16;5023935;28;21356;-27
2021/11/29 10:15:35;;;;;;;4.47;1.60;;;;;;;-148.56;100.00;61375.16;5023864;28;20025;-32
2021/11/29 10:19:18;;;;;;;17.45;3.35;;;;;;;-148.56;100.00;61375.16;5026683;28;20112;-31
2021/11/29 10:22:55;;;;;;;23.17;3.63;;;;;;;-148.56;100.00;61375.16;5028281;28;20033;-30
2021/11/29 10:26:19;;;;;;;11.85;3.03;;;;;;;-148.56;100.00;61375.16;5032667;28;20159;-32
2021/11/29 10:29:53;;;;;;;11.68;3.17;;;;;;;-148.56;100.00;61375.16;5024388;28;20071;-31
2021/11/29 10:33:42;;;;;;;13.38;3.15;;;;;;;-148.56;100.00;61375.16;5023691;28;20037;-35
2021/11/29 10:37:10;;;;;;;10.13;3.08;;;;;;;-148.56;100.00;61375.16;5030447;28;20040;-29
2021/11/29 10:40:36;;;;;;;9.05;2.88;;;;;;;-148.56;100.00;61375.16;5035509;28;20032;-29
2021/11/29 10:44:05;;;;;;;15.43;2.95;;;;;;;-148.56;100.00;61375.16;5025746;28;20083;-33
2021/11/29 10:47:32;;;;;;;10.27;3.22;;;;;;;-148.56;100.00;61375.16;5029082;28;20029;-31
2021/11/29 10:51:06;;;;;;;9.40;2.70;;;;;;;-148.56;100.00;61375.16;5024780;28;20033;-32
2021/11/29 10:54:31;;;;;;;9.10;2.63;;;;;;;-148.56;100.00;61375.16;5026403;28;20890;-34
2021/11/29 10:57:55;;;;;;;12.38;2.83;;;;;;;-148.56;100.00;61375.16;5029897;28;20117;-32
2021/11/29 11:01:30;;;;;;;5.68;2.17;;;;;;;-148.56;100.00;61375.16;5041904;28;20045;-33
2021/11/29 11:05:01;;;;;;;9.65;2.55;;;;;;;-148.56;100.00;61375.16;5026035;28;20124;-29
2021/11/29 11:08:34;;;;;;;7.47;2.38;;;;;;;-148.56;100.00;61375.16;5020109;28;20034;-32
2021/11/29 11:12:06;;;;;;;8.70;2.05;;;;;;;-148.56;100.00;61375.16;5034412;28;20408;-33
2021/11/29 11:15:31;;;;;;;6.22;2.47;;;;;;;-148.56;100.00;61375.16;5029587;28;20217;-33
2021/11/29 11:18:55;;;;;;;8.82;2.25;;;;;;;-148.56;100.00;61375.16;5044138;28;20063;-31
2021/11/29 11:22:21;;;;;;;8.95;2.47;;;;;;;-148.56;100.00;61375.16;5046829;28;20033;-32
2021/11/29 11:25:46;;;;;;;6.32;2.10;;;;;;;-148.56;100.00;61375.16;5041847;28;20052;-31
2021/11/29 11:29:12;;;;;;;10.35;2.38;;;;;;;-148.56;100.00;61375.16;5034158;28;20057;-32
2021/11/29 11:32:36;;;;;;;8.23;2.08;;;;;;;-148.56;100.00;61375.16;5029455;28;20025;-33
2021/11/29 11:36:03;;;;;;;8.20;2.20;;;;;;;-148.56;100.00;61375.16;5031344;28;20029;-31
2021/11/29 11:39:27;;;;;;;11.82;3.92;;;;;;;-148.56;100.00;61375.16;5030120;28;20075;-29
2021/11/29 11:42:51;;;;;;;8.57;3.10;;;;;;;-148.56;100.00;61375.16;5030513;28;20481;-31
2021/11/29 11:46:17;;;;;;;6.35;2.13;;;;;;;-148.56;100.00;61375.16;5031633;28;20623;-30
2021/11/29 11:49:42;;;;;;;7.65;2.60;;;;;;;-148.56;100.00;61375.16;5046879;28;20107;-31
2021/11/29 11:53:06;;;;;;;6.78;2.70;;;;;;;-148.56;100.00;61375.16;5036878;28;20112;-31
2021/11/29 11:56:32;;;;;;;8.02;3.42;;;;;;;-148.56;100.00;61375.16;5031624;28;20472;-29
2021/11/29 12:00:19;;;;;;;10.57;3.63;;;;;;;-148.56;100.00;61375.16;5031873;28;20074;-31
2021/11/29 12:03:46;;;;;;;7.75;3.75;;;;;;;-148.56;100.00;61375.16;5029950;28;20043;-31
2021/11/29 12:07:11;;;;;;;10.63;4.00;;;;;;;-148.56;100.00;61375.16;5032121;28;20049;-31
2021/11/29 12:10:42;;;;;;;9.48;4.03;;;;;;;-148.56;100.00;61375.16;5032142;28;20029;-30
2021/11/29 12:14:07;;;;;;;13.82;3.88;;;;;;;-148.56;100.00;61375.16;5029026;28;20108;-34
2021/11/29 12:17:37;;;;;;;10.00;3.67;;;;;;;-148.56;100.00;61375.16;5031092;28;20040;-32
2021/11/29 12:21:10;;;;;;;11.77;3.72;;;;;;;-148.56;100.00;61375.16;5046090;28;20037;-29
2021/11/29 12:24:45;;;;;;;8.23;3.30;;;;;;;-148.56;100.00;61375.16;5029409;28;20029;-33
2021/11/29 12:28:09;;;;;;;11.23;3.55;;;;;;;-148.56;100.00;61375.16;5031620;28;20069;-30
2021/11/29 12:31:35;;;;;;;5.88;3.10;;;;;;;-148.56;100.00;61375.16;5042790;28;20051;-31
2021/11/29 12:35:02;;;;;;;8.82;3.22;;;;;;;-148.56;100.00;61375.16;5030159;28;20031;-30
2021/11/29 12:38:26;;;;;;;6.75;2.90;;;;;;;-148.56;100.00;61375.16;5030096;28;20029;-31
2021/11/29 12:41:53;;;;;;;7.53;3.17;;;;;;;-148.56;100.00;61375.16;5031503;28;20025;-31
2021/11/29 12:45:37;;;;;;;7.72;3.00;;;;;;;-148.56;100.00;61375.16;5027435;28;20060;-31
2021/11/29 12:49:09;;;;;;;7.03;2.85;;;;;;;-148.56;100.00;61375.16;5029372;28;20034;-31
2021/11/29 12:52:47;;;;;;;13.05;2.80;;;;;;;-148.56;100.00;61375.16;5044206;28;20112;-30
2021/11/29 12:56:19;;;;;;;5.40;2.38;;;;;;;-148.56;100.00;61375.16;5030368;28;20899;-31
2021/11/29 13:00:19;;;;;;;4.97;2.55;;;;;;;-148.56;100.00;61375.16;5026028;28;20075;-30
2021/11/29 13:03:51;;;;;;;8.10;2.60;;;;;;;-148.56;100.00;61375.16;5027426;28;20040;-30
2021/11/29 13:07:15;;;;;;;6.03;2.10;;;;;;;-148.56;100.00;61375.16;5026451;28;20172;-29
2021/11/29 13:10:50;;;;;;;6.38;2.20;;;;;;;-148.56;100.00;61375.16;5024467;28;20033;-29
2021/11/29 13:14:33;;;;;;;5.30;2.25;;;;;;;-148.56;100.00;61375.16;5024798;28;20021;-31
2021/11/29 13:17:57;;;;;;;7.68;2.65;;;;;;;-148.56;100.00;61375.16;5025173;28;20044;-29
2021/11/29 13:21:48;;;;;;;4.80;2.22;;;;;;;-148.56;100.00;61375.16;5027421;28;20035;-33
2021/11/29 13:25:12;;;;;;;5.30;2.33;;;;;;;-148.56;100.00;61375.16;5040986;28;20136;-30
2021/11/29 13:28:36;;;;;;;27.98;10.45;;;;;;;-148.56;100.00;61375.16;5023254;28;20149;-32
2021/11/29 13:32:00;;;;;;;266.15;126.72;;;;;;;-148.56;100.00;61375.16;5019734;28;20663;-32
2021/11/29 13:35:24;;;;;;;428.90;251.15;;;;;;;-148.56;100.00;61375.16;5029553;28;20021;-31
2021/11/29 13:38:50;;;;;;;411.38;236.95;;;;;;;-148.56;100.00;61375.16;5028570;28;20095;-31
2021/11/29 13:42:21;;;;;;;400.45;222.45;;;;;;;-148.56;100.00;61375.16;5029131;28;20142;-31
2021/11/29 13:45:53;;;;;;;383.85;205.93;;;;;;;-148.56;100.00;61375.16;5029388;28;20021;-30
2021/11/29 13:49:17;;;;;;;348.60;187.60;;;;;;;-148.56;100.00;61375.16;5026874;28;20037;-32
2021/11/29 13:52:42;;;;;;;324.67;177.48;;;;;;;-148.56;100.00;61375.16;5025419;28;20047;-31
2021/11/29 13:56:19;;;;;;;292.90;153.43;;;;;;;-148.56;100.00;61375.16;5036586;28;20048;-32
2021/11/29 13:59:46;;;;;;;296.35;148.50;;;;;;;-148.56;100.00;61375.16;5024193;28;20036;-28
2021/11/29 14:03:11;;;;;;;256.20;134.57;;;;;;;-148.56;100.00;61375.16;5023327;28;20041;-30
2021/11/29 14:06:45;;;;;;;245.20;127.60;;;;;;;-148.56;100.00;61375.16;5023034;28;20443;-30
2021/11/29 14:10:08;;;;;;;231.10;125.53;;;;;;;-148.56;100.00;61375.16;5019497;28;20124;-30
2021/11/29 14:13:51;;;;;;;218.15;117.90;;;;;;;-148.56;100.00;61375.16;5036227;28;20104;-34
2021/11/29 14:17:15;;;;;;;;;;;;;;;-148.56;100.00;61375.16;5021857;28;20148;-29
2021/11/29 14:20:39;;;;;;;201.82;104.75;;;;;;;-148.56;100.00;61375.16;5023338;28;20436;-29
2021/11/29 14:24:04;;;;;;;193.68;95.50;;;;;;;-148.56;100.00;61375.16;5023520;28;20710;-30
2021/11/29 14:27:31;;;;;;;181.38;90.75;;;;;;;-148.56;100.00;61375.16;5031912;28;20462;-29
2021/11/29 14:30:55;;;;;;;154.32;84.38;;;;;;;-148.56;100.00;61375.16;5022402;28;20939;-31
2021/11/29 14:34:20;;;;;;;148.57;81.00;;;;;;;-148.56;100.00;61375.16;5020736;28;20037;-30
2021/11/29 14:37:45;;;;;;;148.40;74.65;;;;;;;-148.56;100.00;61375.16;5023623;28;20040;-29
2021/11/29 14:41:12;;;;;;;139.38;71.80;;;;;;;-148.56;100.00;61375.16;5023686;28;20075;-29
2021/11/29 14:44:51;;;;;;;131.05;68.25;;;;;;;-148.56;100.00;61375.16;5026032;28;20060;-31
2021/11/29 14:48:17;;;;;;;112.35;58.42;;;;;;;-148.56;100.00;61375.16;5025079;28;20614;-30
2021/11/29 14:51:46;;;;;;;101.97;56.03;;;;;;;-148.56;100.00;61375.16;5019729;28;20132;-32
2021/11/29 14:55:11;;;;;;;91.97;52.15;;;;;;;-148.56;100.00;61375.16;5021635;28;20032;-29
2021/11/29 14:58:39;;;;;;;87.28;50.30;;;;;;;-148.56;100.00;61375.16;5021710;28;20098;-29
2021/11/29 15:02:03;;;;;;;80.88;46.40;;;;;;;-148.56;100.00;61375.16;5022489;28;20029;-30
2021/11/29 15:05:33;;;;;;;81.53;46.10;;;;;;;-148.56;100.00;61375.16;5021265;28;20048;-29
2021/11/29 15:08:59;;;;;;;77.07;42.08;;;;;;;-148.56;100.00;61375.16;5018932;28;20028;-28
2021/11/29 15:12:24;;;;;;;77.07;42.50;;;;;;;-148.56;100.00;61375.16;5020199;28;20517;-29
2021/11/29 15:15:48;;;;;;;65.20;39.53;;;;;;;-148.56;100.00;61375.16;5021759;28;20349;-32
2021/11/29 15:19:15;;;;;;;65.88;36.83;;;;;;;-148.56;100.00;61375.16;5022138;28;20035;-31
2021/11/29 15:22:50;;;;;;;37.13;22.73;;;;;;;-148.56;100.00;61375.16;5022187;28;20060;-29
2021/11/29 15:26:27;;;;;;;24.27;15.30;;;;;;;-148.56;100.00;61375.16;5027092;28;20055;-30
2021/11/29 15:30:10;;;;;;;25.40;16.77;;;;;;;-148.56;100.00;61375.16;5019646;28;20565;-29
2021/11/29 15:33:35;;;;;;;40.35;24.98;;;;;;;-148.56;100.00;61375.16;5021426;28;20030;-30